sensor_id;sensor_type;location;lat;lon;timestamp;P1;durP1;ratioP1;P2;durP2;ratioP2
59054;SDS011;44845;51.444;7.460;2022-12-18T00:01:05;2.13;;;1.35;;
59054;SDS011;44845;51.444;7.460;2022-12-18T00:03:38;3.72;;;2.13;;
59054;SDS011;44845;51.444;7.460;2022-12-18T00:06:03;1.98;;;1.23;;
59054;SDS011;44845;51.444;7.460;2022-12-18T00:08:29;4.50;;;1.70;;
59054;SDS011;44845;51.444;7.460;2022-12-18T00:10:54;2.90;;;1.70;;
59054;SDS011;44845;51.444;7.460;2022-12-18T00:13:19;3.90;;;1.70;;
59054;SDS011;44845;51.444;7.460;2022-12-18T00:15:45;3.92;;;1.88;;
59054;SDS011;44845;51.444;7.460;2022-12-18T00:18:10;3.13;;;1.92;;
59054;SDS011;44845;51.444;7.460;2022-12-18T00:20:36;3.08;;;1.65;;
59054;SDS011;44845;51.444;7.460;2022-12-18T00:23:03;3.97;;;2.25;;
59054;SDS011;44845;51.444;7.460;2022-12-18T00:25:32;5.07;;;1.88;;
59054;SDS011;44845;51.444;7.460;2022-12-18T00:27:59;6.53;;;2.75;;
59054;SDS011;44845;51.444;7.460;2022-12-18T00:30:24;2.75;;;1.90;;
59054;SDS011;44845;51.444;7.460;2022-12-18T00:32:50;3.78;;;2.10;;
59054;SDS011;44845;51.444;7.460;2022-12-18T00:35:15;2.85;;;1.58;;
59054;SDS011;44845;51.444;7.460;2022-12-18T00:37:40;4.03;;;2.10;;
59054;SDS011;44845;51.444;7.460;2022-12-18T00:40:06;4.75;;;2.60;;
59054;SDS011;44845;51.444;7.460;2022-12-18T00:42:32;3.58;;;2.42;;
59054;SDS011;44845;51.444;7.460;2022-12-18T00:45:15;4.90;;;2.22;;
59054;SDS011;44845;51.444;7.460;2022-12-18T00:47:41;3.08;;;1.85;;
59054;SDS011;44845;51.444;7.460;2022-12-18T00:50:06;7.93;;;2.38;;
59054;SDS011;44845;51.444;7.460;2022-12-18T00:52:32;4.13;;;1.92;;
59054;SDS011;44845;51.444;7.460;2022-12-18T00:54:57;4.55;;;2.10;;
59054;SDS011;44845;51.444;7.460;2022-12-18T00:57:23;3.63;;;2.38;;
59054;SDS011;44845;51.444;7.460;2022-12-18T00:59:48;4.85;;;2.00;;
59054;SDS011;44845;51.444;7.460;2022-12-18T01:02:13;1.98;;;1.50;;
59054;SDS011;44845;51.444;7.460;2022-12-18T01:04:39;3.67;;;2.08;;
59054;SDS011;44845;51.444;7.460;2022-12-18T01:07:04;5.00;;;1.90;;
59054;SDS011;44845;51.444;7.460;2022-12-18T01:09:29;4.43;;;2.20;;
59054;SDS011;44845;51.444;7.460;2022-12-18T01:11:55;2.20;;;1.60;;
59054;SDS011;44845;51.444;7.460;2022-12-18T01:14:20;5.13;;;2.95;;
59054;SDS011;44845;51.444;7.460;2022-12-18T01:16:46;4.20;;;2.50;;
59054;SDS011;44845;51.444;7.460;2022-12-18T01:19:11;3.53;;;2.00;;
59054;SDS011;44845;51.444;7.460;2022-12-18T01:21:36;3.63;;;2.20;;
59054;SDS011;44845;51.444;7.460;2022-12-18T01:24:02;4.57;;;2.00;;
59054;SDS011;44845;51.444;7.460;2022-12-18T01:26:27;3.58;;;2.17;;
59054;SDS011;44845;51.444;7.460;2022-12-18T01:28:55;5.15;;;2.65;;
59054;SDS011;44845;51.444;7.460;2022-12-18T01:31:23;3.85;;;2.08;;
59054;SDS011;44845;51.444;7.460;2022-12-18T01:33:54;3.03;;;1.70;;
59054;SDS011;44845;51.444;7.460;2022-12-18T01:36:20;5.65;;;2.30;;
59054;SDS011;44845;51.444;7.460;2022-12-18T01:38:48;5.68;;;2.30;;
59054;SDS011;44845;51.444;7.460;2022-12-18T01:41:17;3.00;;;1.80;;
59054;SDS011;44845;51.444;7.460;2022-12-18T01:43:46;3.58;;;2.13;;
59054;SDS011;44845;51.444;7.460;2022-12-18T01:46:14;3.65;;;2.30;;
59054;SDS011;44845;51.444;7.460;2022-12-18T01:48:41;4.07;;;2.17;;
59054;SDS011;44845;51.444;7.460;2022-12-18T01:51:10;3.53;;;1.90;;
59054;SDS011;44845;51.444;7.460;2022-12-18T01:53:37;3.50;;;1.80;;
59054;SDS011;44845;51.444;7.460;2022-12-18T01:56:05;2.95;;;2.00;;
59054;SDS011;44845;51.444;7.460;2022-12-18T02:01:19;5.18;;;2.20;;
59054;SDS011;44845;51.444;7.460;2022-12-18T02:03:47;5.72;;;2.00;;
59054;SDS011;44845;51.444;7.460;2022-12-18T02:06:17;3.30;;;2.00;;
59054;SDS011;44845;51.444;7.460;2022-12-18T02:08:50;5.53;;;2.78;;
59054;SDS011;44845;51.444;7.460;2022-12-18T02:11:29;4.25;;;2.45;;
59054;SDS011;44845;51.444;7.460;2022-12-18T02:16:52;3.38;;;2.03;;
59054;SDS011;44845;51.444;7.460;2022-12-18T02:27:52;3.13;;;2.30;;
59054;SDS011;44845;51.444;7.460;2022-12-18T02:30:22;3.67;;;2.25;;
59054;SDS011;44845;51.444;7.460;2022-12-18T02:32:49;3.85;;;2.00;;
59054;SDS011;44845;51.444;7.460;2022-12-18T02:35:20;3.30;;;1.95;;
59054;SDS011;44845;51.444;7.460;2022-12-18T02:37:49;5.63;;;2.33;;
59054;SDS011;44845;51.444;7.460;2022-12-18T02:40:15;3.60;;;2.30;;
59054;SDS011;44845;51.444;7.460;2022-12-18T02:42:43;3.63;;;2.50;;
59054;SDS011;44845;51.444;7.460;2022-12-18T02:45:09;4.53;;;2.22;;
59054;SDS011;44845;51.444;7.460;2022-12-18T02:47:37;3.47;;;1.98;;
59054;SDS011;44845;51.444;7.460;2022-12-18T02:50:38;4.93;;;1.95;;
59054;SDS011;44845;51.444;7.460;2022-12-18T03:01:49;2.80;;;2.00;;
59054;SDS011;44845;51.444;7.460;2022-12-18T03:06:53;3.08;;;2.10;;
59054;SDS011;44845;51.444;7.460;2022-12-18T03:09:29;5.65;;;2.33;;
59054;SDS011;44845;51.444;7.460;2022-12-18T03:17:34;3.35;;;1.73;;
59054;SDS011;44845;51.444;7.460;2022-12-18T03:20:10;6.03;;;2.30;;
59054;SDS011;44845;51.444;7.460;2022-12-18T03:22:39;2.78;;;1.83;;
59054;SDS011;44845;51.444;7.460;2022-12-18T03:25:09;4.55;;;2.13;;
59054;SDS011;44845;51.444;7.460;2022-12-18T03:27:39;2.85;;;1.98;;
59054;SDS011;44845;51.444;7.460;2022-12-18T03:30:10;4.05;;;2.00;;
59054;SDS011;44845;51.444;7.460;2022-12-18T03:32:39;3.85;;;2.30;;
59054;SDS011;44845;51.444;7.460;2022-12-18T03:35:13;2.80;;;1.90;;
59054;SDS011;44845;51.444;7.460;2022-12-18T03:37:46;3.03;;;2.15;;
59054;SDS011;44845;51.444;7.460;2022-12-18T03:40:11;3.85;;;2.00;;
59054;SDS011;44845;51.444;7.460;2022-12-18T03:45:22;4.55;;;1.98;;
59054;SDS011;44845;51.444;7.460;2022-12-18T03:48:00;3.28;;;1.90;;
59054;SDS011;44845;51.444;7.460;2022-12-18T03:55:54;2.78;;;1.77;;
59054;SDS011;44845;51.444;7.460;2022-12-18T03:58:23;3.40;;;1.63;;
59054;SDS011;44845;51.444;7.460;2022-12-18T04:00:51;4.25;;;1.60;;
59054;SDS011;44845;51.444;7.460;2022-12-18T04:03:19;3.42;;;1.90;;
59054;SDS011;44845;51.444;7.460;2022-12-18T04:05:46;4.05;;;1.67;;
59054;SDS011;44845;51.444;7.460;2022-12-18T04:08:15;1.88;;;1.38;;
59054;SDS011;44845;51.444;7.460;2022-12-18T04:10:40;3.60;;;1.40;;
59054;SDS011;44845;51.444;7.460;2022-12-18T04:13:06;2.88;;;1.95;;
59054;SDS011;44845;51.444;7.460;2022-12-18T04:15:33;4.90;;;1.90;;
59054;SDS011;44845;51.444;7.460;2022-12-18T04:18:00;3.15;;;1.75;;
59054;SDS011;44845;51.444;7.460;2022-12-18T04:20:26;2.45;;;1.80;;
59054;SDS011;44845;51.444;7.460;2022-12-18T04:22:52;3.08;;;1.70;;
59054;SDS011;44845;51.444;7.460;2022-12-18T04:25:17;4.30;;;2.03;;
59054;SDS011;44845;51.444;7.460;2022-12-18T04:27:42;2.92;;;1.55;;
59054;SDS011;44845;51.444;7.460;2022-12-18T04:30:08;3.20;;;1.85;;
59054;SDS011;44845;51.444;7.460;2022-12-18T04:32:34;2.67;;;1.42;;
59054;SDS011;44845;51.444;7.460;2022-12-18T04:34:59;2.50;;;1.60;;
59054;SDS011;44845;51.444;7.460;2022-12-18T04:37:25;1.80;;;1.27;;
59054;SDS011;44845;51.444;7.460;2022-12-18T04:39:50;3.25;;;1.70;;
59054;SDS011;44845;51.444;7.460;2022-12-18T04:42:15;3.78;;;1.67;;
59054;SDS011;44845;51.444;7.460;2022-12-18T04:44:41;4.05;;;1.88;;
59054;SDS011;44845;51.444;7.460;2022-12-18T04:47:06;2.53;;;1.58;;
59054;SDS011;44845;51.444;7.460;2022-12-18T04:49:32;5.70;;;2.15;;
59054;SDS011;44845;51.444;7.460;2022-12-18T04:51:58;3.80;;;2.25;;
59054;SDS011;44845;51.444;7.460;2022-12-18T04:54:23;3.65;;;1.92;;
59054;SDS011;44845;51.444;7.460;2022-12-18T04:56:48;5.78;;;2.13;;
59054;SDS011;44845;51.444;7.460;2022-12-18T04:59:14;4.20;;;2.33;;
59054;SDS011;44845;51.444;7.460;2022-12-18T05:01:39;4.63;;;2.28;;
59054;SDS011;44845;51.444;7.460;2022-12-18T05:04:04;4.50;;;2.28;;
59054;SDS011;44845;51.444;7.460;2022-12-18T05:06:30;4.65;;;2.35;;
59054;SDS011;44845;51.444;7.460;2022-12-18T05:08:55;3.80;;;2.10;;
59054;SDS011;44845;51.444;7.460;2022-12-18T05:11:21;3.92;;;2.10;;
59054;SDS011;44845;51.444;7.460;2022-12-18T05:13:46;4.18;;;2.20;;
59054;SDS011;44845;51.444;7.460;2022-12-18T05:16:12;3.97;;;2.03;;
59054;SDS011;44845;51.444;7.460;2022-12-18T05:18:38;7.47;;;2.78;;
59054;SDS011;44845;51.444;7.460;2022-12-18T05:21:04;6.78;;;2.70;;
59054;SDS011;44845;51.444;7.460;2022-12-18T05:23:30;5.03;;;2.30;;
59054;SDS011;44845;51.444;7.460;2022-12-18T05:25:56;4.60;;;2.25;;
59054;SDS011;44845;51.444;7.460;2022-12-18T05:28:22;6.30;;;2.38;;
59054;SDS011;44845;51.444;7.460;2022-12-18T05:30:53;3.70;;;2.13;;
59054;SDS011;44845;51.444;7.460;2022-12-18T05:33:20;4.43;;;2.17;;
59054;SDS011;44845;51.444;7.460;2022-12-18T05:38:19;4.55;;;2.45;;
59054;SDS011;44845;51.444;7.460;2022-12-18T05:40:45;3.58;;;2.08;;
59054;SDS011;44845;51.444;7.460;2022-12-18T05:43:12;2.90;;;2.17;;
59054;SDS011;44845;51.444;7.460;2022-12-18T05:45:37;3.60;;;2.10;;
59054;SDS011;44845;51.444;7.460;2022-12-18T05:48:04;3.85;;;1.95;;
59054;SDS011;44845;51.444;7.460;2022-12-18T05:50:30;3.03;;;1.92;;
59054;SDS011;44845;51.444;7.460;2022-12-18T05:52:55;3.63;;;2.00;;
59054;SDS011;44845;51.444;7.460;2022-12-18T05:55:20;2.92;;;2.13;;
59054;SDS011;44845;51.444;7.460;2022-12-18T05:57:46;4.72;;;2.20;;
59054;SDS011;44845;51.444;7.460;2022-12-18T06:00:11;4.10;;;2.38;;
59054;SDS011;44845;51.444;7.460;2022-12-18T06:02:37;3.75;;;2.65;;
59054;SDS011;44845;51.444;7.460;2022-12-18T06:05:03;4.40;;;2.40;;
59054;SDS011;44845;51.444;7.460;2022-12-18T06:07:28;5.55;;;2.15;;
59054;SDS011;44845;51.444;7.460;2022-12-18T06:09:54;3.97;;;1.98;;
59054;SDS011;44845;51.444;7.460;2022-12-18T06:12:19;3.90;;;2.13;;
59054;SDS011;44845;51.444;7.460;2022-12-18T06:14:44;4.35;;;2.30;;
59054;SDS011;44845;51.444;7.460;2022-12-18T06:17:10;4.40;;;2.17;;
59054;SDS011;44845;51.444;7.460;2022-12-18T06:19:35;5.03;;;2.58;;
59054;SDS011;44845;51.444;7.460;2022-12-18T06:22:01;4.25;;;2.20;;
59054;SDS011;44845;51.444;7.460;2022-12-18T06:24:26;3.72;;;1.95;;
59054;SDS011;44845;51.444;7.460;2022-12-18T06:26:51;3.00;;;1.83;;
59054;SDS011;44845;51.444;7.460;2022-12-18T06:29:17;3.80;;;2.00;;
59054;SDS011;44845;51.444;7.460;2022-12-18T06:31:42;5.50;;;2.20;;
59054;SDS011;44845;51.444;7.460;2022-12-18T06:34:07;3.22;;;2.10;;
59054;SDS011;44845;51.444;7.460;2022-12-18T06:36:33;4.32;;;2.00;;
59054;SDS011;44845;51.444;7.460;2022-12-18T06:38:58;3.80;;;1.98;;
59054;SDS011;44845;51.444;7.460;2022-12-18T06:41:24;3.08;;;2.10;;
59054;SDS011;44845;51.444;7.460;2022-12-18T06:43:49;3.55;;;2.47;;
59054;SDS011;44845;51.444;7.460;2022-12-18T06:46:14;5.30;;;2.25;;
59054;SDS011;44845;51.444;7.460;2022-12-18T06:48:40;3.95;;;2.30;;
59054;SDS011;44845;51.444;7.460;2022-12-18T06:51:05;4.15;;;2.22;;
59054;SDS011;44845;51.444;7.460;2022-12-18T06:53:31;4.80;;;2.40;;
59054;SDS011;44845;51.444;7.460;2022-12-18T06:56:04;5.10;;;2.50;;
59054;SDS011;44845;51.444;7.460;2022-12-18T06:58:31;5.97;;;2.50;;
59054;SDS011;44845;51.444;7.460;2022-12-18T07:01:00;6.60;;;2.55;;
59054;SDS011;44845;51.444;7.460;2022-12-18T07:03:26;6.35;;;2.53;;
59054;SDS011;44845;51.444;7.460;2022-12-18T07:05:52;5.25;;;2.28;;
59054;SDS011;44845;51.444;7.460;2022-12-18T07:08:17;4.80;;;2.47;;
59054;SDS011;44845;51.444;7.460;2022-12-18T07:10:43;5.05;;;2.25;;
59054;SDS011;44845;51.444;7.460;2022-12-18T07:13:09;5.32;;;2.53;;
59054;SDS011;44845;51.444;7.460;2022-12-18T07:15:35;4.72;;;2.35;;
59054;SDS011;44845;51.444;7.460;2022-12-18T07:18:00;4.18;;;2.17;;
59054;SDS011;44845;51.444;7.460;2022-12-18T07:20:25;4.88;;;2.20;;
59054;SDS011;44845;51.444;7.460;2022-12-18T07:22:51;3.83;;;2.03;;
59054;SDS011;44845;51.444;7.460;2022-12-18T07:25:16;3.78;;;2.15;;
59054;SDS011;44845;51.444;7.460;2022-12-18T07:27:41;3.50;;;2.25;;
59054;SDS011;44845;51.444;7.460;2022-12-18T07:30:07;3.58;;;1.85;;
59054;SDS011;44845;51.444;7.460;2022-12-18T07:32:33;2.85;;;1.90;;
59054;SDS011;44845;51.444;7.460;2022-12-18T07:34:59;3.22;;;1.95;;
59054;SDS011;44845;51.444;7.460;2022-12-18T07:37:24;4.25;;;2.10;;
59054;SDS011;44845;51.444;7.460;2022-12-18T07:39:50;3.47;;;1.90;;
59054;SDS011;44845;51.444;7.460;2022-12-18T07:42:15;7.75;;;2.10;;
59054;SDS011;44845;51.444;7.460;2022-12-18T07:44:55;6.60;;;2.92;;
59054;SDS011;44845;51.444;7.460;2022-12-18T07:47:21;4.28;;;2.20;;
59054;SDS011;44845;51.444;7.460;2022-12-18T07:49:46;4.00;;;2.28;;
59054;SDS011;44845;51.444;7.460;2022-12-18T07:52:11;4.18;;;2.20;;
59054;SDS011;44845;51.444;7.460;2022-12-18T07:54:37;4.85;;;2.28;;
59054;SDS011;44845;51.444;7.460;2022-12-18T07:57:03;4.30;;;2.35;;
59054;SDS011;44845;51.444;7.460;2022-12-18T07:59:28;4.43;;;2.00;;
59054;SDS011;44845;51.444;7.460;2022-12-18T08:01:53;5.25;;;2.20;;
59054;SDS011;44845;51.444;7.460;2022-12-18T08:04:18;4.03;;;1.98;;
59054;SDS011;44845;51.444;7.460;2022-12-18T08:06:44;3.17;;;1.92;;
59054;SDS011;44845;51.444;7.460;2022-12-18T08:09:09;5.00;;;2.50;;
59054;SDS011;44845;51.444;7.460;2022-12-18T08:11:35;4.45;;;1.95;;
59054;SDS011;44845;51.444;7.460;2022-12-18T08:14:00;3.33;;;1.90;;
59054;SDS011;44845;51.444;7.460;2022-12-18T08:16:26;3.67;;;2.33;;
59054;SDS011;44845;51.444;7.460;2022-12-18T08:18:51;2.75;;;1.95;;
59054;SDS011;44845;51.444;7.460;2022-12-18T08:21:22;5.40;;;2.45;;
59054;SDS011;44845;51.444;7.460;2022-12-18T08:23:49;3.40;;;2.00;;
59054;SDS011;44845;51.444;7.460;2022-12-18T08:26:16;4.03;;;2.85;;
59054;SDS011;44845;51.444;7.460;2022-12-18T08:28:42;5.05;;;2.22;;
59054;SDS011;44845;51.444;7.460;2022-12-18T08:31:08;3.20;;;2.00;;
59054;SDS011;44845;51.444;7.460;2022-12-18T08:33:34;4.53;;;2.30;;
59054;SDS011;44845;51.444;7.460;2022-12-18T08:36:00;5.35;;;2.28;;
59054;SDS011;44845;51.444;7.460;2022-12-18T08:38:26;4.15;;;2.28;;
59054;SDS011;44845;51.444;7.460;2022-12-18T08:41:05;4.85;;;2.30;;
59054;SDS011;44845;51.444;7.460;2022-12-18T08:43:32;3.03;;;2.13;;
59054;SDS011;44845;51.444;7.460;2022-12-18T08:46:17;3.63;;;1.92;;
59054;SDS011;44845;51.444;7.460;2022-12-18T08:48:43;4.72;;;2.00;;
59054;SDS011;44845;51.444;7.460;2022-12-18T08:51:09;5.60;;;2.22;;
59054;SDS011;44845;51.444;7.460;2022-12-18T08:53:35;3.42;;;2.42;;
59054;SDS011;44845;51.444;7.460;2022-12-18T08:56:01;3.03;;;1.95;;
59054;SDS011;44845;51.444;7.460;2022-12-18T08:58:27;5.20;;;2.03;;
59054;SDS011;44845;51.444;7.460;2022-12-18T09:00:53;3.88;;;2.25;;
59054;SDS011;44845;51.444;7.460;2022-12-18T09:03:18;4.97;;;2.75;;
59054;SDS011;44845;51.444;7.460;2022-12-18T09:05:47;3.28;;;2.08;;
59054;SDS011;44845;51.444;7.460;2022-12-18T09:08:13;3.08;;;2.00;;
59054;SDS011;44845;51.444;7.460;2022-12-18T09:10:45;3.63;;;2.20;;
59054;SDS011;44845;51.444;7.460;2022-12-18T09:13:12;3.10;;;1.77;;
59054;SDS011;44845;51.444;7.460;2022-12-18T09:15:46;4.05;;;2.33;;
59054;SDS011;44845;51.444;7.460;2022-12-18T09:20:39;2.80;;;1.95;;
59054;SDS011;44845;51.444;7.460;2022-12-18T09:23:05;3.15;;;1.70;;
59054;SDS011;44845;51.444;7.460;2022-12-18T09:25:31;2.72;;;1.75;;
59054;SDS011;44845;51.444;7.460;2022-12-18T09:27:58;3.67;;;1.85;;
59054;SDS011;44845;51.444;7.460;2022-12-18T09:30:25;2.72;;;2.10;;
59054;SDS011;44845;51.444;7.460;2022-12-18T09:32:50;2.70;;;1.60;;
59054;SDS011;44845;51.444;7.460;2022-12-18T09:35:15;3.42;;;2.03;;
59054;SDS011;44845;51.444;7.460;2022-12-18T09:37:41;3.47;;;1.70;;
59054;SDS011;44845;51.444;7.460;2022-12-18T09:40:12;4.18;;;2.03;;
59054;SDS011;44845;51.444;7.460;2022-12-18T09:42:39;2.65;;;1.80;;
59054;SDS011;44845;51.444;7.460;2022-12-18T09:45:05;3.05;;;1.90;;
59054;SDS011;44845;51.444;7.460;2022-12-18T09:47:37;3.58;;;1.70;;
59054;SDS011;44845;51.444;7.460;2022-12-18T09:50:05;5.18;;;2.25;;
59054;SDS011;44845;51.444;7.460;2022-12-18T09:52:59;3.92;;;2.03;;
59054;SDS011;44845;51.444;7.460;2022-12-18T09:55:34;5.30;;;2.45;;
59054;SDS011;44845;51.444;7.460;2022-12-18T09:58:05;5.40;;;2.40;;
59054;SDS011;44845;51.444;7.460;2022-12-18T10:00:38;6.35;;;2.35;;
59054;SDS011;44845;51.444;7.460;2022-12-18T10:03:08;4.13;;;1.88;;
59054;SDS011;44845;51.444;7.460;2022-12-18T10:11:13;4.10;;;1.95;;
59054;SDS011;44845;51.444;7.460;2022-12-18T10:19:37;4.10;;;1.70;;
59054;SDS011;44845;51.444;7.460;2022-12-18T10:25:05;3.92;;;1.73;;
59054;SDS011;44845;51.444;7.460;2022-12-18T10:27:40;4.00;;;1.40;;
59054;SDS011;44845;51.444;7.460;2022-12-18T10:30:12;3.20;;;1.83;;
59054;SDS011;44845;51.444;7.460;2022-12-18T10:32:39;4.80;;;2.55;;
59054;SDS011;44845;51.444;7.460;2022-12-18T10:35:04;4.03;;;2.00;;
59054;SDS011;44845;51.444;7.460;2022-12-18T10:37:40;3.45;;;1.60;;
59054;SDS011;44845;51.444;7.460;2022-12-18T10:40:25;2.42;;;1.40;;
59054;SDS011;44845;51.444;7.460;2022-12-18T10:51:18;3.72;;;2.00;;
59054;SDS011;44845;51.444;7.460;2022-12-18T10:53:52;4.38;;;2.00;;
59054;SDS011;44845;51.444;7.460;2022-12-18T10:56:21;3.47;;;1.40;;
59054;SDS011;44845;51.444;7.460;2022-12-18T10:59:06;4.82;;;1.30;;
59054;SDS011;44845;51.444;7.460;2022-12-18T11:04:22;4.75;;;1.88;;
59054;SDS011;44845;51.444;7.460;2022-12-18T11:06:55;5.15;;;1.60;;
59054;SDS011;44845;51.444;7.460;2022-12-18T11:09:23;3.67;;;1.60;;
59054;SDS011;44845;51.444;7.460;2022-12-18T11:11:58;7.30;;;2.10;;
59054;SDS011;44845;51.444;7.460;2022-12-18T11:14:33;5.53;;;1.85;;
59054;SDS011;44845;51.444;7.460;2022-12-18T11:17:16;2.33;;;1.38;;
59054;SDS011;44845;51.444;7.460;2022-12-18T11:19:55;2.70;;;1.40;;
59054;SDS011;44845;51.444;7.460;2022-12-18T11:22:23;3.22;;;1.33;;
59054;SDS011;44845;51.444;7.460;2022-12-18T11:27:21;4.35;;;2.13;;
59054;SDS011;44845;51.444;7.460;2022-12-18T11:29:47;3.40;;;1.80;;
59054;SDS011;44845;51.444;7.460;2022-12-18T11:35:01;6.18;;;1.80;;
59054;SDS011;44845;51.444;7.460;2022-12-18T11:37:35;5.47;;;1.98;;
59054;SDS011;44845;51.444;7.460;2022-12-18T11:40:03;6.55;;;1.85;;
59054;SDS011;44845;51.444;7.460;2022-12-18T11:43:10;5.80;;;2.17;;
59054;SDS011;44845;51.444;7.460;2022-12-18T11:45:43;8.52;;;1.83;;
59054;SDS011;44845;51.444;7.460;2022-12-18T11:48:38;4.88;;;1.70;;
59054;SDS011;44845;51.444;7.460;2022-12-18T11:51:09;5.22;;;2.00;;
59054;SDS011;44845;51.444;7.460;2022-12-18T11:53:39;6.60;;;2.08;;
59054;SDS011;44845;51.444;7.460;2022-12-18T12:06:52;6.15;;;1.75;;
59054;SDS011;44845;51.444;7.460;2022-12-18T12:17:36;3.78;;;1.55;;
59054;SDS011;44845;51.444;7.460;2022-12-18T12:20:10;4.05;;;2.00;;
59054;SDS011;44845;51.444;7.460;2022-12-18T12:23:35;3.78;;;2.47;;
59054;SDS011;44845;51.444;7.460;2022-12-18T12:25:59;4.35;;;2.10;;
59054;SDS011;44845;51.444;7.460;2022-12-18T12:39:27;4.13;;;2.00;;
59054;SDS011;44845;51.444;7.460;2022-12-18T12:41:56;5.82;;;2.13;;
59054;SDS011;44845;51.444;7.460;2022-12-18T12:44:42;4.95;;;2.28;;
59054;SDS011;44845;51.444;7.460;2022-12-18T12:47:16;5.07;;;2.58;;
59054;SDS011;44845;51.444;7.460;2022-12-18T12:49:46;5.50;;;2.20;;
59054;SDS011;44845;51.444;7.460;2022-12-18T12:52:27;5.97;;;2.28;;
59054;SDS011;44845;51.444;7.460;2022-12-18T12:54:59;3.95;;;2.47;;
59054;SDS011;44845;51.444;7.460;2022-12-18T12:57:37;5.10;;;2.67;;
59054;SDS011;44845;51.444;7.460;2022-12-18T13:08:10;8.63;;;2.65;;
59054;SDS011;44845;51.444;7.460;2022-12-18T13:10:46;7.93;;;2.40;;
59054;SDS011;44845;51.444;7.460;2022-12-18T13:13:12;4.55;;;2.70;;
59054;SDS011;44845;51.444;7.460;2022-12-18T13:18:27;8.55;;;2.78;;
59054;SDS011;44845;51.444;7.460;2022-12-18T13:25:47;6.57;;;3.60;;
59054;SDS011;44845;51.444;7.460;2022-12-18T13:28:13;6.63;;;3.53;;
59054;SDS011;44845;51.444;7.460;2022-12-18T13:38:22;8.52;;;5.18;;
59054;SDS011;44845;51.444;7.460;2022-12-18T13:41:39;9.52;;;5.55;;
59054;SDS011;44845;51.444;7.460;2022-12-18T13:44:10;10.20;;;4.97;;
59054;SDS011;44845;51.444;7.460;2022-12-18T13:46:59;8.05;;;4.57;;
59054;SDS011;44845;51.444;7.460;2022-12-18T13:52:00;9.80;;;4.53;;
59054;SDS011;44845;51.444;7.460;2022-12-18T13:56:57;11.15;;;5.00;;
59054;SDS011;44845;51.444;7.460;2022-12-18T13:59:38;9.10;;;4.30;;
59054;SDS011;44845;51.444;7.460;2022-12-18T14:02:11;9.20;;;4.68;;
59054;SDS011;44845;51.444;7.460;2022-12-18T14:04:39;9.23;;;4.53;;
59054;SDS011;44845;51.444;7.460;2022-12-18T14:07:10;7.40;;;4.85;;
59054;SDS011;44845;51.444;7.460;2022-12-18T14:09:43;11.02;;;6.53;;
59054;SDS011;44845;51.444;7.460;2022-12-18T14:12:32;11.27;;;4.90;;
59054;SDS011;44845;51.444;7.460;2022-12-18T14:17:46;8.77;;;4.68;;
59054;SDS011;44845;51.444;7.460;2022-12-18T14:20:13;10.55;;;5.05;;
59054;SDS011;44845;51.444;7.460;2022-12-18T14:22:42;10.23;;;5.70;;
59054;SDS011;44845;51.444;7.460;2022-12-18T14:27:38;14.43;;;7.30;;
59054;SDS011;44845;51.444;7.460;2022-12-18T14:33:04;13.68;;;7.68;;
59054;SDS011;44845;51.444;7.460;2022-12-18T14:35:34;11.38;;;6.18;;
59054;SDS011;44845;51.444;7.460;2022-12-18T14:41:00;11.70;;;5.88;;
59054;SDS011;44845;51.444;7.460;2022-12-18T14:43:28;11.98;;;6.47;;
59054;SDS011;44845;51.444;7.460;2022-12-18T14:45:56;14.23;;;7.20;;
59054;SDS011;44845;51.444;7.460;2022-12-18T14:51:03;14.80;;;6.55;;
59054;SDS011;44845;51.444;7.460;2022-12-18T14:53:35;9.57;;;5.78;;
59054;SDS011;44845;51.444;7.460;2022-12-18T14:56:16;13.23;;;6.53;;
59054;SDS011;44845;51.444;7.460;2022-12-18T14:58:45;11.80;;;6.45;;
59054;SDS011;44845;51.444;7.460;2022-12-18T15:04:00;13.95;;;6.60;;
59054;SDS011;44845;51.444;7.460;2022-12-18T15:08:56;12.98;;;6.03;;
59054;SDS011;44845;51.444;7.460;2022-12-18T15:12:04;10.70;;;6.32;;
59054;SDS011;44845;51.444;7.460;2022-12-18T15:16:54;10.07;;;6.28;;
59054;SDS011;44845;51.444;7.460;2022-12-18T15:19:21;11.68;;;6.47;;
59054;SDS011;44845;51.444;7.460;2022-12-18T15:21:50;11.63;;;7.03;;
59054;SDS011;44845;51.444;7.460;2022-12-18T15:24:20;14.95;;;7.07;;
59054;SDS011;44845;51.444;7.460;2022-12-18T15:26:51;11.88;;;6.20;;
59054;SDS011;44845;51.444;7.460;2022-12-18T15:29:20;15.20;;;7.38;;
59054;SDS011;44845;51.444;7.460;2022-12-18T15:32:04;15.13;;;6.53;;
59054;SDS011;44845;51.444;7.460;2022-12-18T15:34:31;11.38;;;6.95;;
59054;SDS011;44845;51.444;7.460;2022-12-18T15:36:58;11.95;;;6.97;;
59054;SDS011;44845;51.444;7.460;2022-12-18T15:39:24;13.00;;;6.95;;
59054;SDS011;44845;51.444;7.460;2022-12-18T15:41:50;12.30;;;6.88;;
59054;SDS011;44845;51.444;7.460;2022-12-18T15:44:34;13.57;;;7.30;;
59054;SDS011;44845;51.444;7.460;2022-12-18T15:46:59;15.73;;;7.13;;
59054;SDS011;44845;51.444;7.460;2022-12-18T15:49:25;14.43;;;7.88;;
59054;SDS011;44845;51.444;7.460;2022-12-18T15:51:54;14.38;;;7.50;;
59054;SDS011;44845;51.444;7.460;2022-12-18T15:54:24;13.75;;;7.35;;
59054;SDS011;44845;51.444;7.460;2022-12-18T15:57:09;16.58;;;8.43;;
59054;SDS011;44845;51.444;7.460;2022-12-18T15:59:47;14.15;;;7.93;;
59054;SDS011;44845;51.444;7.460;2022-12-18T16:02:14;13.30;;;7.95;;
59054;SDS011;44845;51.444;7.460;2022-12-18T16:04:42;15.90;;;8.95;;
59054;SDS011;44845;51.444;7.460;2022-12-18T16:07:07;15.15;;;8.55;;
59054;SDS011;44845;51.444;7.460;2022-12-18T16:09:34;15.60;;;8.13;;
59054;SDS011;44845;51.444;7.460;2022-12-18T16:12:00;18.73;;;9.35;;
59054;SDS011;44845;51.444;7.460;2022-12-18T16:14:27;17.65;;;8.82;;
59054;SDS011;44845;51.444;7.460;2022-12-18T16:16:55;14.45;;;8.25;;
59054;SDS011;44845;51.444;7.460;2022-12-18T16:19:25;14.40;;;8.65;;
59054;SDS011;44845;51.444;7.460;2022-12-18T16:21:52;15.18;;;8.75;;
59054;SDS011;44845;51.444;7.460;2022-12-18T16:24:23;15.77;;;9.30;;
59054;SDS011;44845;51.444;7.460;2022-12-18T16:26:50;18.15;;;8.90;;
59054;SDS011;44845;51.444;7.460;2022-12-18T16:29:17;16.60;;;9.07;;
59054;SDS011;44845;51.444;7.460;2022-12-18T16:31:43;15.70;;;9.10;;
59054;SDS011;44845;51.444;7.460;2022-12-18T16:36:37;17.33;;;9.65;;
59054;SDS011;44845;51.444;7.460;2022-12-18T16:39:03;16.77;;;9.52;;
59054;SDS011;44845;51.444;7.460;2022-12-18T16:41:28;16.08;;;9.52;;
59054;SDS011;44845;51.444;7.460;2022-12-18T16:43:57;17.50;;;9.30;;
59054;SDS011;44845;51.444;7.460;2022-12-18T16:46:22;17.92;;;9.45;;
59054;SDS011;44845;51.444;7.460;2022-12-18T16:48:48;18.02;;;9.90;;
59054;SDS011;44845;51.444;7.460;2022-12-18T16:51:13;18.88;;;10.48;;
59054;SDS011;44845;51.444;7.460;2022-12-18T16:53:38;16.55;;;9.90;;
59054;SDS011;44845;51.444;7.460;2022-12-18T16:56:04;21.50;;;11.50;;
59054;SDS011;44845;51.444;7.460;2022-12-18T16:58:29;17.55;;;9.43;;
59054;SDS011;44845;51.444;7.460;2022-12-18T17:00:55;23.70;;;10.52;;
59054;SDS011;44845;51.444;7.460;2022-12-18T17:03:20;20.45;;;9.82;;
59054;SDS011;44845;51.444;7.460;2022-12-18T17:05:46;22.35;;;12.13;;
59054;SDS011;44845;51.444;7.460;2022-12-18T17:08:11;26.63;;;14.98;;
59054;SDS011;44845;51.444;7.460;2022-12-18T17:10:36;21.13;;;11.13;;
59054;SDS011;44845;51.444;7.460;2022-12-18T17:13:02;23.17;;;13.23;;
59054;SDS011;44845;51.444;7.460;2022-12-18T17:15:27;20.17;;;11.63;;
59054;SDS011;44845;51.444;7.460;2022-12-18T17:17:52;20.00;;;11.30;;
59054;SDS011;44845;51.444;7.460;2022-12-18T17:20:18;22.98;;;11.55;;
59054;SDS011;44845;51.444;7.460;2022-12-18T17:22:43;19.77;;;10.93;;
59054;SDS011;44845;51.444;7.460;2022-12-18T17:25:08;19.60;;;10.82;;
59054;SDS011;44845;51.444;7.460;2022-12-18T17:27:34;18.25;;;10.88;;
59054;SDS011;44845;51.444;7.460;2022-12-18T17:29:59;22.42;;;12.48;;
59054;SDS011;44845;51.444;7.460;2022-12-18T17:32:24;24.40;;;12.13;;